Time;durP1;ratioP1;P1;durP2;ratioP2;P2;SDS_P1;SDS_P2;PMS_P1;PMS_P2;Temp;Humidity;BMP_temperature;BMP_pressure;BME280_temperature;BME280_humidity;BME280_pressure;Samples;Min_cycle;Max_cycle;Signal;HPM_P1;HPM_P2
2021/05/03 00:00:18;;;;;;;6.23;5.20;;;;;;;;;;5050634;28;20195;-72
2021/05/03 00:03:03;;;;;;;5.87;5.20;;;;;;;;;;5051393;28;20285;-73
2021/05/03 00:05:55;;;;;;;5.93;5.20;;;;;;;;;;5051527;28;20222;-73
2021/05/03 00:08:41;;;;;;;5.73;5.03;;;;;;;;;;5051722;28;20194;-72
2021/05/03 00:11:25;;;;;;;6.03;5.53;;;;;;;;;;5050700;28;20207;-72
2021/05/03 00:14:09;;;;;;;6.97;5.33;;;;;;;;;;5051123;28;20205;-72
2021/05/03 00:16:54;;;;;;;5.80;5.23;;;;;;;;;;5051017;28;20264;-72
2021/05/03 00:19:38;;;;;;;6.27;5.70;;;;;;;;;;5050592;28;20222;-72
2021/05/03 00:22:23;;;;;;;5.50;5.07;;;;;;;;;;5051061;28;20202;-72
2021/05/03 00:25:09;;;;;;;5.83;5.33;;;;;;;;;;5050998;28;20244;-72
2021/05/03 00:27:53;;;;;;;6.17;5.67;;;;;;;;;;5051158;28;20210;-72
2021/05/03 00:30:38;;;;;;;8.30;6.83;;;;;;;;;;5049785;28;20527;-72
2021/05/03 00:33:22;;;;;;;6.37;5.70;;;;;;;;;;5050978;28;20248;-72
2021/05/03 00:36:07;;;;;;;6.57;6.00;;;;;;;;;;5050722;28;20251;-72
2021/05/03 00:38:51;;;;;;;6.40;5.80;;;;;;;;;;5050893;28;20208;-72
2021/05/03 00:41:36;;;;;;;7.00;5.93;;;;;;;;;;5050382;28;20225;-72
2021/05/03 00:44:22;;;;;;;7.32;6.60;;;;;;;;;;5050273;28;20491;-72
2021/05/03 00:47:08;;;;;;;6.50;5.83;;;;;;;;;;5050564;28;20639;-72
2021/05/03 00:49:52;;;;;;;6.37;5.87;;;;;;;;;;5050066;28;20339;-72
2021/05/03 00:52:37;;;;;;;6.20;5.70;;;;;;;;;;5050970;28;20201;-72
2021/05/03 00:55:23;;;;;;;6.80;6.20;;;;;;;;;;5050643;28;20252;-72
2021/05/03 00:58:08;;;;;;;6.77;6.17;;;;;;;;;;5050485;28;20289;-72
2021/05/03 01:00:53;;;;;;;7.17;6.57;;;;;;;;;;5050225;28;20560;-72
2021/05/03 01:03:38;;;;;;;6.60;6.10;;;;;;;;;;5050768;28;20624;-73
2021/05/03 01:06:22;;;;;;;6.37;5.77;;;;;;;;;;5050351;28;20225;-72
2021/05/03 01:09:07;;;;;;;6.57;5.93;;;;;;;;;;5050739;28;20281;-72
2021/05/03 01:11:52;;;;;;;7.47;6.20;;;;;;;;;;5050576;28;20208;-72
2021/05/03 01:14:37;;;;;;;6.93;6.33;;;;;;;;;;5050530;28;20213;-72
2021/05/03 01:17:29;;;;;;;6.50;6.00;;;;;;;;;;5050698;28;20201;-72
2021/05/03 01:20:15;;;;;;;7.65;6.93;;;;;;;;;;5049621;28;20413;-72
2021/05/03 01:23:00;;;;;;;7.47;6.60;;;;;;;;;;5050297;28;20209;-72
2021/05/03 01:25:45;;;;;;;6.77;6.17;;;;;;;;;;5050300;28;20618;-72
2021/05/03 01:28:29;;;;;;;7.03;6.50;;;;;;;;;;5050429;28;20253;-72
2021/05/03 01:31:14;;;;;;;7.27;6.27;;;;;;;;;;5049660;28;20233;-72
2021/05/03 01:34:02;;;;;;;7.50;6.30;;;;;;;;;;5050771;28;20165;-72
2021/05/03 01:36:47;;;;;;;10.10;6.70;;;;;;;;;;5050132;28;20228;-72
2021/05/03 01:39:32;;;;;;;6.70;6.07;;;;;;;;;;5049148;28;20205;-72
2021/05/03 01:42:17;;;;;;;7.33;6.73;;;;;;;;;;5049901;28;20256;-72
2021/05/03 01:45:01;;;;;;;7.93;7.27;;;;;;;;;;5050064;28;20289;-72
2021/05/03 01:47:46;;;;;;;8.03;7.27;;;;;;;;;;5050048;28;20568;-72
2021/05/03 01:50:31;;;;;;;8.30;7.50;;;;;;;;;;5048968;28;20230;-72
2021/05/03 01:53:16;;;;;;;8.33;7.53;;;;;;;;;;5049799;28;20726;-72
2021/05/03 01:56:01;;;;;;;7.80;7.10;;;;;;;;;;5050597;28;20292;-72
2021/05/03 01:58:46;;;;;;;8.63;7.30;;;;;;;;;;5053217;28;20764;-72
2021/05/03 02:01:30;;;;;;;8.40;7.37;;;;;;;;;;5053304;28;20259;-72
2021/05/03 02:04:15;;;;;;;8.97;8.17;;;;;;;;;;5053592;28;20204;-72
2021/05/03 02:06:59;;;;;;;9.17;7.77;;;;;;;;;;5053212;28;20221;-72
2021/05/03 02:09:44;;;;;;;10.25;9.45;;;;;;;;;;5052384;28;20440;-72
2021/05/03 02:12:29;;;;;;;8.60;7.77;;;;;;;;;;5052969;28;20297;-72
2021/05/03 02:15:14;;;;;;;8.90;7.97;;;;;;;;;;5053205;28;20264;-72
2021/05/03 02:17:59;;;;;;;8.23;7.53;;;;;;;;;;5053162;28;20206;-72
2021/05/03 02:20:44;;;;;;;9.37;8.47;;;;;;;;;;5052657;28;20224;-72
2021/05/03 02:23:28;;;;;;;9.90;9.00;;;;;;;;;;5052521;28;20769;-72
2021/05/03 02:26:13;;;;;;;8.93;8.13;;;;;;;;;;5052979;28;20301;-72
2021/05/03 02:28:58;;;;;;;8.70;7.93;;;;;;;;;;5052765;28;20205;-72
2021/05/03 02:31:43;;;;;;;9.70;8.77;;;;;;;;;;5053062;28;20264;-72
2021/05/03 02:34:27;;;;;;;9.07;8.17;;;;;;;;;;5052656;28;20616;-72
2021/05/03 02:37:12;;;;;;;10.27;9.30;;;;;;;;;;5053017;28;20210;-73
2021/05/03 02:39:56;;;;;;;10.00;9.17;;;;;;;;;;5052238;28;20576;-72
2021/05/03 02:42:41;;;;;;;9.33;8.50;;;;;;;;;;5052860;28;20244;-72
2021/05/03 02:45:26;;;;;;;10.33;9.33;;;;;;;;;;5052695;28;20858;-72
2021/05/03 02:48:11;;;;;;;9.97;9.07;;;;;;;;;;5052686;28;20213;-72
2021/05/03 02:50:55;;;;;;;9.00;8.10;;;;;;;;;;5051322;28;20225;-72
2021/05/03 02:53:40;;;;;;;10.53;9.63;;;;;;;;;;5052745;28;20206;-72
2021/05/03 02:56:24;;;;;;;10.93;9.83;;;;;;;;;;5052554;28;20283;-72
2021/05/03 02:59:09;;;;;;;10.50;9.50;;;;;;;;;;5052249;28;20240;-72
2021/05/03 03:01:54;;;;;;;12.97;10.63;;;;;;;;;;5052298;28;20212;-72
2021/05/03 03:04:39;;;;;;;10.63;9.70;;;;;;;;;;5052155;28;20252;-72
2021/05/03 03:07:23;;;;;;;10.77;9.80;;;;;;;;;;5052277;28;20244;-72
2021/05/03 03:10:09;;;;;;;10.03;9.13;;;;;;;;;;5051690;28;20224;-72
2021/05/03 03:12:53;;;;;;;9.80;8.93;;;;;;;;;;5051787;28;20579;-72
2021/05/03 03:15:38;;;;;;;13.27;12.27;;;;;;;;;;5031122;28;20813;-72
2021/05/03 03:18:23;;;;;;;10.73;9.73;;;;;;;;;;5041540;28;20285;-72
2021/05/03 03:21:08;;;;;;;10.47;9.47;;;;;;;;;;5050948;28;20216;-72
2021/05/03 03:23:53;;;;;;;9.90;9.07;;;;;;;;;;5051822;28;20209;-72
2021/05/03 03:26:37;;;;;;;10.90;9.90;;;;;;;;;;5051651;28;20296;-71
2021/05/03 03:29:22;;;;;;;11.00;10.00;;;;;;;;;;5051135;28;20248;-72
2021/05/03 03:32:09;;;;;;;10.33;9.40;;;;;;;;;;5052172;28;20201;-72
2021/05/03 03:34:54;;;;;;;10.27;9.37;;;;;;;;;;5052076;28;20710;-72
2021/05/03 03:37:39;;;;;;;10.13;9.23;;;;;;;;;;5054223;28;20225;-72
2021/05/03 03:40:23;;;;;;;9.87;8.97;;;;;;;;;;5048745;28;20212;-72
2021/05/03 03:43:08;;;;;;;9.60;8.70;;;;;;;;;;5050998;28;20197;-72
2021/05/03 03:45:52;;;;;;;10.33;9.33;;;;;;;;;;5051586;28;20712;-72
2021/05/03 03:48:37;;;;;;;12.07;11.07;;;;;;;;;;5051044;28;20424;-72
2021/05/03 03:51:22;;;;;;;10.80;9.70;;;;;;;;;;5050816;28;20245;-72
2021/05/03 03:54:07;;;;;;;11.30;10.23;;;;;;;;;;5051500;28;20205;-72
2021/05/03 03:56:51;;;;;;;11.77;10.67;;;;;;;;;;5051359;28;20704;-72
2021/05/03 03:59:39;;;;;;;11.37;10.27;;;;;;;;;;5050811;28;20213;-72
2021/05/03 04:02:24;;;;;;;14.80;13.40;;;;;;;;;;5050766;28;20424;-72
2021/05/03 04:05:21;;;;;;;12.00;10.90;;;;;;;;;;5051251;28;20259;-72
2021/05/03 04:08:11;;;;;;;13.20;11.63;;;;;;;;;;5051760;28;20580;-72
2021/05/03 04:11:04;;;;;;;12.57;11.33;;;;;;;;;;5050789;28;20229;-72
2021/05/03 04:26:21;;;;;;;14.50;13.00;;;;;;;;;;5043047;28;20670;-72
2021/05/03 04:29:06;;;;;;;14.60;13.20;;;;;;;;;;5050496;28;20220;-72
2021/05/03 04:31:50;;;;;;;15.17;13.77;;;;;;;;;;5050859;28;20209;-72
2021/05/03 04:34:35;;;;;;;15.43;14.03;;;;;;;;;;5050440;28;20214;-72
2021/05/03 04:37:19;;;;;;;15.90;14.43;;;;;;;;;;5050368;28;20285;-73
2021/05/03 04:40:05;;;;;;;15.23;13.83;;;;;;;;;;5050333;28;20229;-72
2021/05/03 04:42:50;;;;;;;15.97;14.40;;;;;;;;;;5050567;28;20271;-72
2021/05/03 04:45:35;;;;;;;15.87;14.27;;;;;;;;;;5051024;28;20225;-72
2021/05/03 04:48:19;;;;;;;15.73;14.23;;;;;;;;;;5051844;28;20271;-73
2021/05/03 04:51:04;;;;;;;18.33;16.70;;;;;;;;;;5049492;28;20440;-72
2021/05/03 04:53:48;;;;;;;15.77;14.37;;;;;;;;;;5049911;28;20210;-72
2021/05/03 04:56:33;;;;;;;15.23;13.83;;;;;;;;;;5050768;28;20226;-72
2021/05/03 04:59:18;;;;;;;15.37;13.93;;;;;;;;;;5053163;28;20237;-72
2021/05/03 05:02:03;;;;;;;14.67;13.33;;;;;;;;;;5051042;28;20213;-72
2021/05/03 05:04:47;;;;;;;15.30;13.90;;;;;;;;;;5051026;28;20568;-72
2021/05/03 05:07:32;;;;;;;15.37;13.97;;;;;;;;;;5050697;28;20279;-72
2021/05/03 05:10:16;;;;;;;15.30;13.87;;;;;;;;;;5049912;28;20221;-72
2021/05/03 05:13:02;;;;;;;15.20;13.73;;;;;;;;;;5050578;28;20683;-72
2021/05/03 05:15:46;;;;;;;14.30;13.00;;;;;;;;;;5050255;28;20225;-72
2021/05/03 05:18:30;;;;;;;14.30;12.93;;;;;;;;;;5050478;28;20619;-72
2021/05/03 05:21:15;;;;;;;13.43;12.03;;;;;;;;;;5049680;28;20222;-72
2021/05/03 05:23:59;;;;;;;14.13;12.83;;;;;;;;;;5050490;28;20206;-72
2021/05/03 05:26:44;;;;;;;13.23;11.83;;;;;;;;;;5050716;28;20202;-72
2021/05/03 05:29:30;;;;;;;13.90;12.60;;;;;;;;;;5050019;28;20202;-72
2021/05/03 05:32:14;;;;;;;12.67;11.47;;;;;;;;;;5052689;28;20856;-72
2021/05/03 05:34:59;;;;;;;14.77;12.63;;;;;;;;;;5054261;28;20237;-72
2021/05/03 05:37:43;;;;;;;14.63;13.10;;;;;;;;;;5053975;28;20572;-72
2021/05/03 05:40:28;;;;;;;13.73;12.53;;;;;;;;;;5053643;28;20199;-72
2021/05/03 05:43:13;;;;;;;14.55;13.15;;;;;;;;;;5053460;28;20404;-72
2021/05/03 05:45:58;;;;;;;13.90;11.80;;;;;;;;;;5053740;28;20728;-72
2021/05/03 05:48:43;;;;;;;12.90;11.57;;;;;;;;;;5054676;28;20238;-72
2021/05/03 05:51:27;;;;;;;12.93;11.63;;;;;;;;;;5053562;28;20497;-72
2021/05/03 05:54:13;;;;;;;13.43;12.03;;;;;;;;;;5055835;28;20203;-72
2021/05/03 05:56:58;;;;;;;12.77;10.83;;;;;;;;;;5054070;28;20281;-72
2021/05/03 05:59:42;;;;;;;11.97;10.27;;;;;;;;;;5053295;28;20211;-72
2021/05/03 06:02:27;;;;;;;11.63;10.50;;;;;;;;;;5053553;28;20203;-72
2021/05/03 06:05:14;;;;;;;11.50;10.47;;;;;;;;;;5053589;28;20313;-73
2021/05/03 06:07:58;;;;;;;11.17;10.03;;;;;;;;;;5053567;28;20204;-72
2021/05/03 06:10:43;;;;;;;11.40;10.33;;;;;;;;;;5052788;28;20268;-72
2021/05/03 06:13:27;;;;;;;10.87;9.77;;;;;;;;;;5053389;28;20288;-72
2021/05/03 06:16:12;;;;;;;11.03;9.93;;;;;;;;;;5053322;28;20333;-72
2021/05/03 06:18:58;;;;;;;11.63;10.57;;;;;;;;;;5053354;28;20241;-72
2021/05/03 06:21:43;;;;;;;10.27;9.27;;;;;;;;;;5053137;28;20695;-72
2021/05/03 06:24:27;;;;;;;11.10;10.10;;;;;;;;;;5053106;28;20206;-72
2021/05/03 06:27:12;;;;;;;11.13;9.90;;;;;;;;;;5053266;28;20491;-72
2021/05/03 06:29:56;;;;;;;10.03;8.97;;;;;;;;;;5053008;28;20693;-72
2021/05/03 06:32:41;;;;;;;10.17;9.17;;;;;;;;;;5053045;28;20234;-72
2021/05/03 06:35:26;;;;;;;10.10;9.10;;;;;;;;;;5052903;28;20223;-72
2021/05/03 06:38:11;;;;;;;9.70;8.70;;;;;;;;;;5051976;28;20200;-72
2021/05/03 06:40:55;;;;;;;9.10;8.30;;;;;;;;;;5049632;28;20204;-72
2021/05/03 06:43:40;;;;;;;10.63;8.43;;;;;;;;;;5052646;28;20718;-73
2021/05/03 06:46:24;;;;;;;9.27;8.33;;;;;;;;;;5057043;28;20761;-73
2021/05/03 06:49:09;;;;;;;10.83;8.47;;;;;;;;;;5052072;28;20255;-71
2021/05/03 06:51:55;;;;;;;8.87;7.77;;;;;;;;;;5051111;28;20331;-71
2021/05/03 06:54:39;;;;;;;8.90;8.10;;;;;;;;;;5049320;28;20278;-73
2021/05/03 06:57:24;;;;;;;8.97;7.87;;;;;;;;;;5051624;28;20239;-73
2021/05/03 07:00:09;;;;;;;8.10;7.20;;;;;;;;;;5051449;28;20220;-72
2021/05/03 07:02:54;;;;;;;8.43;7.27;;;;;;;;;;5052108;28;20702;-76
2021/05/03 07:05:39;;;;;;;7.80;7.20;;;;;;;;;;5051803;28;20768;-79
2021/05/03 07:08:26;;;;;;;7.73;7.07;;;;;;;;;;5052360;28;20212;-79
2021/05/03 07:11:13;;;;;;;7.77;7.00;;;;;;;;;;5051315;28;20310;-79
2021/05/03 07:13:58;;;;;;;8.57;7.70;;;;;;;;;;5052152;28;20726;-79
2021/05/03 07:16:42;;;;;;;8.70;7.80;;;;;;;;;;5047803;28;20213;-74
2021/05/03 07:19:27;;;;;;;8.98;8.18;;;;;;;;;;5051650;28;20449;-74
2021/05/03 07:22:12;;;;;;;10.37;9.20;;;;;;;;;;5031849;28;20237;-76
2021/05/03 07:24:57;;;;;;;10.47;9.57;;;;;;;;;;5047382;28;20727;-78
2021/05/03 07:27:42;;;;;;;11.10;10.10;;;;;;;;;;5051947;28;20590;-78
2021/05/03 07:30:26;;;;;;;11.50;10.40;;;;;;;;;;5050552;28;20275;-80
2021/05/03 07:33:11;;;;;;;12.20;11.10;;;;;;;;;;5051576;28;20241;-81
2021/05/03 07:35:56;;;;;;;13.07;11.87;;;;;;;;;;5051735;28;20570;-80
2021/05/03 07:38:41;;;;;;;13.90;12.70;;;;;;;;;;5052255;28;20232;-78
2021/05/03 07:41:26;;;;;;;14.53;13.07;;;;;;;;;;5049044;28;20322;-79
2021/05/03 07:44:11;;;;;;;14.17;12.70;;;;;;;;;;5051941;28;20267;-80
2021/05/03 07:46:55;;;;;;;15.63;14.33;;;;;;;;;;5050873;28;20243;-74
2021/05/03 07:49:40;;;;;;;15.27;13.83;;;;;;;;;;5050895;28;20204;-78
2021/05/03 07:52:24;;;;;;;17.05;15.68;;;;;;;;;;5051153;28;20425;-80
2021/05/03 07:55:11;;;;;;;16.60;15.00;;;;;;;;;;5051112;28;20317;-75
2021/05/03 07:57:58;;;;;;;16.43;14.90;;;;;;;;;;5051401;28;20204;-79
2021/05/03 08:00:42;;;;;;;17.17;15.60;;;;;;;;;;5050445;28;20216;-87
2021/05/03 08:03:26;;;;;;;16.73;15.33;;;;;;;;;;5051277;28;20220;-79
2021/05/03 08:06:13;;;;;;;16.77;15.37;;;;;;;;;;5050748;28;20334;-76
2021/05/03 08:09:00;;;;;;;17.20;15.57;;;;;;;;;;5051235;28;20687;-84
2021/05/03 08:11:45;;;;;;;16.63;15.23;;;;;;;;;;5031133;28;20280;-83
2021/05/03 08:14:31;;;;;;;17.27;15.87;;;;;;;;;;5034541;28;20318;-81
2021/05/03 08:17:16;;;;;;;17.30;15.80;;;;;;;;;;5051201;28;20224;-81
2021/05/03 08:20:01;;;;;;;17.20;15.60;;;;;;;;;;5050118;28;20201;-84
2021/05/03 08:22:45;;;;;;;17.33;15.87;;;;;;;;;;5050581;28;20217;-81
2021/05/03 08:25:30;;;;;;;17.70;16.23;;;;;;;;;;5050867;28;20244;-76
2021/05/03 08:28:14;;;;;;;18.60;17.00;;;;;;;;;;5050877;28;20212;-81
2021/05/03 08:31:00;;;;;;;17.70;16.20;;;;;;;;;;5049954;28;20329;-79
2021/05/03 08:33:44;;;;;;;17.97;16.57;;;;;;;;;;5050620;28;20683;-78
2021/05/03 08:36:29;;;;;;;18.27;16.67;;;;;;;;;;5049794;28;20206;-81
2021/05/03 08:39:13;;;;;;;18.50;16.93;;;;;;;;;;5050255;28;20200;-79
2021/05/03 08:41:59;;;;;;;18.43;16.73;;;;;;;;;;5050679;28;20704;-79
2021/05/03 08:44:45;;;;;;;17.83;16.43;;;;;;;;;;5049905;28;20254;-79
2021/05/03 08:47:34;;;;;;;18.20;16.80;;;;;;;;;;5048476;28;20204;-79
2021/05/03 08:50:26;;;;;;;17.47;16.00;;;;;;;;;;5047489;28;20580;-79
2021/05/03 08:53:11;;;;;;;18.47;16.77;;;;;;;;;;5048241;28;20695;-79
2021/05/03 08:55:55;;;;;;;17.00;15.47;;;;;;;;;;5047463;28;20348;-79
2021/05/03 08:58:40;;;;;;;17.20;15.80;;;;;;;;;;5046913;28;20209;-76
2021/05/03 09:01:25;;;;;;;17.37;15.87;;;;;;;;;;5042554;28;20282;-77
2021/05/03 09:04:10;;;;;;;15.93;14.63;;;;;;;;;;5047568;28;20260;-76
2021/05/03 09:06:59;;;;;;;16.03;14.70;;;;;;;;;;5052283;28;20251;-76
2021/05/03 09:09:44;;;;;;;17.60;16.10;;;;;;;;;;5054223;28;20201;-77
2021/05/03 09:12:29;;;;;;;17.10;15.60;;;;;;;;;;5053740;28;20205;-76
2021/05/03 09:15:18;;;;;;;17.23;15.63;;;;;;;;;;5054157;28;20251;-76
2021/05/03 09:18:02;;;;;;;17.13;15.63;;;;;;;;;;5053800;28;20205;-76
2021/05/03 09:20:50;;;;;;;16.83;15.50;;;;;;;;;;5053906;28;20270;-76
2021/05/03 09:23:49;;;;;;;16.77;15.27;;;;;;;;;;5053817;28;20267;-77
2021/05/03 09:26:40;;;;;;;16.33;15.03;;;;;;;;;;5054209;28;20201;-76
2021/05/03 09:29:26;;;;;;;16.73;15.33;;;;;;;;;;5053246;28;20208;-76
2021/05/03 09:32:11;;;;;;;17.90;16.43;;;;;;;;;;5053440;28;20225;-76
2021/05/03 09:34:55;;;;;;;17.13;15.53;;;;;;;;;;5052515;28;20259;-77
2021/05/03 09:37:40;;;;;;;16.53;15.23;;;;;;;;;;5051304;28;20236;-75
2021/05/03 09:40:25;;;;;;;18.37;15.80;;;;;;;;;;5049630;28;20868;-77
2021/05/03 09:43:10;;;;;;;16.52;15.25;;;;;;;;;;5051462;28;20395;-77
2021/05/03 09:45:54;;;;;;;15.80;14.43;;;;;;;;;;5050496;28;20766;-75
2021/05/03 09:48:39;;;;;;;15.57;14.27;;;;;;;;;;5051519;28;20201;-74
2021/05/03 09:51:39;;;;;;;16.03;14.53;;;;;;;;;;5050895;28;20697;-75
2021/05/03 09:54:26;;;;;;;15.83;14.53;;;;;;;;;;5051070;28;20248;-75
2021/05/03 09:57:11;;;;;;;16.27;14.87;;;;;;;;;;5051669;28;20209;-73
2021/05/03 09:59:57;;;;;;;16.67;15.17;;;;;;;;;;5050324;28;20217;-71
2021/05/03 10:02:41;;;;;;;16.80;15.10;;;;;;;;;;5050984;28;20237;-71
2021/05/03 10:05:25;;;;;;;15.77;14.43;;;;;;;;;;5051532;28;20213;-71
2021/05/03 10:08:10;;;;;;;16.53;15.03;;;;;;;;;;5050870;28;20244;-71
2021/05/03 10:10:58;;;;;;;16.63;15.32;;;;;;;;;;5047936;28;20970;-71
2021/05/03 10:13:43;;;;;;;15.27;13.90;;;;;;;;;;5051409;28;20585;-72
2021/05/03 10:16:31;;;;;;;15.60;14.37;;;;;;;;;;5050950;28;20225;-71
2021/05/03 10:19:18;;;;;;;16.50;15.20;;;;;;;;;;5045559;28;20245;-71
2021/05/03 10:22:04;;;;;;;16.70;15.30;;;;;;;;;;5052330;28;20257;-71
2021/05/03 10:24:49;;;;;;;15.90;14.60;;;;;;;;;;5052514;28;20415;-71
2021/05/03 10:27:38;;;;;;;15.40;14.10;;;;;;;;;;5053224;28;20205;-72
2021/05/03 10:30:23;;;;;;;14.80;13.53;;;;;;;;;;5052267;28;20272;-71
2021/05/03 10:33:09;;;;;;;16.43;15.03;;;;;;;;;;5052986;28;20221;-71
2021/05/03 10:35:56;;;;;;;15.43;14.13;;;;;;;;;;5052991;28;20609;-71
2021/05/03 10:38:41;;;;;;;16.00;14.70;;;;;;;;;;5052758;28;20209;-71
2021/05/03 10:41:26;;;;;;;17.10;15.73;;;;;;;;;;5052233;28;20202;-71
2021/05/03 10:44:14;;;;;;;15.67;14.27;;;;;;;;;;5052150;28;20225;-71
2021/05/03 10:47:02;;;;;;;15.17;13.87;;;;;;;;;;5052680;28;20229;-71
2021/05/03 10:49:48;;;;;;;13.57;12.50;;;;;;;;;;5052595;28;20683;-71
2021/05/03 10:52:32;;;;;;;13.83;12.63;;;;;;;;;;5043976;28;20308;-71
2021/05/03 10:55:17;;;;;;;14.00;12.87;;;;;;;;;;5032919;28;20253;-71
2021/05/03 10:58:02;;;;;;;13.13;12.13;;;;;;;;;;5039445;28;20205;-70
2021/05/03 11:00:56;;;;;;;15.33;13.93;;;;;;;;;;5051984;28;20232;-71
2021/05/03 11:04:00;;;;;;;14.23;13.03;;;;;;;;;;5052160;28;20229;-71
2021/05/03 11:07:04;;;;;;;12.57;11.63;;;;;;;;;;5032441;28;20230;-72
2021/05/03 11:09:53;;;;;;;12.40;11.40;;;;;;;;;;5042979;28;20197;-71
2021/05/03 11:12:38;;;;;;;13.15;11.95;;;;;;;;;;5047143;28;20425;-71
2021/05/03 11:15:27;;;;;;;13.07;11.87;;;;;;;;;;5051045;28;20329;-71
2021/05/03 11:18:17;;;;;;;12.87;11.57;;;;;;;;;;5052174;28;20213;-73
2021/05/03 11:21:12;;;;;;;11.90;11.00;;;;;;;;;;5050415;28;20323;-73
2021/05/03 11:24:14;;;;;;;11.67;10.77;;;;;;;;;;5031997;28;20234;-75
2021/05/03 11:27:01;;;;;;;11.40;10.40;;;;;;;;;;5048008;28;20585;-73
2021/05/03 11:29:49;;;;;;;11.57;10.57;;;;;;;;;;5049684;28;20205;-73
2021/05/03 11:32:36;;;;;;;11.40;10.47;;;;;;;;;;5050533;28;20415;-73
2021/05/03 11:35:28;;;;;;;10.77;9.93;;;;;;;;;;5049843;28;20229;-72
2021/05/03 11:38:21;;;;;;;10.60;9.63;;;;;;;;;;5051154;28;20196;-72
2021/05/03 11:41:11;;;;;;;10.50;9.60;;;;;;;;;;5051501;28;20578;-72
2021/05/03 11:43:59;;;;;;;9.93;9.13;;;;;;;;;;5052114;28;20202;-72
2021/05/03 11:46:44;;;;;;;9.63;8.93;;;;;;;;;;5051882;28;20255;-72
2021/05/03 11:49:28;;;;;;;9.77;8.80;;;;;;;;;;5050839;28;20197;-72
2021/05/03 11:52:25;;;;;;;10.33;9.40;;;;;;;;;;5051273;28;20236;-72
2021/05/03 11:55:10;;;;;;;10.60;9.70;;;;;;;;;;5051508;28;20240;-72
2021/05/03 11:57:55;;;;;;;11.35;10.35;;;;;;;;;;5051688;28;20400;-72
2021/05/03 12:00:42;;;;;;;11.63;10.47;;;;;;;;;;5050776;28;20303;-72
2021/05/03 12:03:30;;;;;;;10.40;9.50;;;;;;;;;;5051382;28;20312;-72
2021/05/03 12:06:31;;;;;;;11.10;10.10;;;;;;;;;;5051456;28;20252;-72
2021/05/03 12:09:16;;;;;;;10.53;9.73;;;;;;;;;;5050929;28;20613;-72
2021/05/03 12:12:03;;;;;;;11.10;10.23;;;;;;;;;;5050966;28;20267;-72
2021/05/03 12:14:48;;;;;;;11.50;10.53;;;;;;;;;;5051114;28;20217;-72
2021/05/03 12:17:33;;;;;;;11.53;10.63;;;;;;;;;;5051115;28;20573;-72
2021/05/03 12:20:18;;;;;;;11.30;10.37;;;;;;;;;;5050557;28;20227;-72
2021/05/03 12:23:04;;;;;;;11.83;10.80;;;;;;;;;;5050694;28;20217;-72
2021/05/03 12:25:50;;;;;;;12.87;11.73;;;;;;;;;;5051133;28;20196;-72
2021/05/03 12:28:35;;;;;;;12.77;11.77;;;;;;;;;;5051035;28;20236;-72
2021/05/03 12:31:21;;;;;;;12.15;11.25;;;;;;;;;;5048486;28;20436;-72
2021/05/03 12:34:05;;;;;;;13.03;12.03;;;;;;;;;;5047031;28;20279;-73
2021/05/03 12:37:03;;;;;;;12.33;11.33;;;;;;;;;;5048824;28;20198;-75
2021/05/03 12:39:59;;;;;;;12.80;11.60;;;;;;;;;;5049732;28;20571;-74
2021/05/03 12:42:45;;;;;;;13.13;11.93;;;;;;;;;;5030280;28;20237;-76
2021/05/03 12:45:35;;;;;;;13.47;12.47;;;;;;;;;;5030336;28;20545;-74
2021/05/03 12:48:28;;;;;;;12.43;11.33;;;;;;;;;;5030792;28;20217;-76
2021/05/03 12:51:26;;;;;;;13.40;12.20;;;;;;;;;;5030056;28;20280;-81
2021/05/03 12:54:16;;;;;;;12.63;11.63;;;;;;;;;;5030820;28;20624;-78
2021/05/03 12:57:05;;;;;;;10.47;9.63;;;;;;;;;;5030802;28;20206;-78
2021/05/03 12:59:54;;;;;;;9.67;8.77;;;;;;;;;;5042635;28;20280;-82
2021/05/03 13:02:47;;;;;;;10.37;9.57;;;;;;;;;;5051286;28;20276;-74
2021/05/03 13:05:37;;;;;;;10.07;9.27;;;;;;;;;;5050195;28;20201;-77
2021/05/03 13:08:43;;;;;;;11.53;9.43;;;;;;;;;;5030668;28;20210;-77
2021/05/03 13:11:58;;;;;;;10.53;9.60;;;;;;;;;;5038611;28;20711;-76
2021/05/03 13:30:18;;;;;;;11.03;10.13;;;;;;;;;;5004305;28;20329;-81
2021/05/03 13:33:05;;;;;;;11.83;11.03;;;;;;;;;;5036619;28;20712;-76
2021/05/03 13:35:49;;;;;;;11.57;10.70;;;;;;;;;;5049562;28;20417;-79
2021/05/03 13:38:34;;;;;;;11.60;10.67;;;;;;;;;;5049741;28;20244;-79
2021/05/03 13:41:18;;;;;;;10.90;10.00;;;;;;;;;;5037036;28;20268;-76
2021/05/03 13:44:03;;;;;;;11.70;10.50;;;;;;;;;;5029859;28;20226;-79
2021/05/03 13:46:48;;;;;;;10.20;9.30;;;;;;;;;;5030594;28;20560;-79
2021/05/03 13:49:34;;;;;;;10.33;9.53;;;;;;;;;;5048334;28;20229;-81
2021/05/03 13:52:21;;;;;;;10.30;9.40;;;;;;;;;;5040203;28;20269;-78
2021/05/03 13:55:05;;;;;;;10.90;9.57;;;;;;;;;;5033839;28;20210;-74
2021/05/03 13:57:49;;;;;;;9.63;8.93;;;;;;;;;;5048829;28;20731;-76
2021/05/03 14:00:34;;;;;;;10.37;9.47;;;;;;;;;;5052353;28;20209;-74
2021/05/03 14:03:19;;;;;;;9.67;8.97;;;;;;;;;;5053192;28;20229;-76
2021/05/03 14:06:05;;;;;;;8.83;8.13;;;;;;;;;;5053504;28;20241;-77
2021/05/03 14:08:49;;;;;;;8.98;8.18;;;;;;;;;;5053418;28;20421;-77
2021/05/03 14:11:34;;;;;;;8.17;7.40;;;;;;;;;;5053128;28;20283;-74
2021/05/03 14:14:19;;;;;;;7.80;7.07;;;;;;;;;;5052933;28;20272;-74
2021/05/03 14:17:07;;;;;;;7.67;7.00;;;;;;;;;;5053173;28;20204;-74
2021/05/03 14:19:51;;;;;;;7.47;6.70;;;;;;;;;;5052310;28;20224;-73
2021/05/03 14:22:36;;;;;;;7.00;6.40;;;;;;;;;;5052767;28;20287;-74
2021/05/03 14:25:21;;;;;;;7.80;7.03;;;;;;;;;;5051850;28;20405;-73
2021/05/03 14:28:09;;;;;;;7.00;6.40;;;;;;;;;;5052827;28;20473;-73
2021/05/03 14:30:56;;;;;;;7.13;6.53;;;;;;;;;;5053041;28;20301;-74
2021/05/03 14:33:43;;;;;;;7.10;6.53;;;;;;;;;;5052944;28;20224;-74
2021/05/03 14:36:27;;;;;;;7.03;6.43;;;;;;;;;;5053278;28;20209;-75
2021/05/03 14:39:12;;;;;;;8.17;7.30;;;;;;;;;;5051937;28;20201;-74
2021/05/03 14:41:57;;;;;;;7.80;7.00;;;;;;;;;;5052980;28;20251;-75
2021/05/03 14:44:41;;;;;;;7.60;6.90;;;;;;;;;;5052853;28;20440;-74
2021/05/03 14:47:31;;;;;;;7.47;6.87;;;;;;;;;;5052788;28;20294;-73
2021/05/03 14:50:22;;;;;;;7.63;6.90;;;;;;;;;;5051812;28;20728;-74
2021/05/03 14:53:21;;;;;;;7.67;6.90;;;;;;;;;;5047578;28;20710;-73
2021/05/03 14:56:07;;;;;;;7.57;6.97;;;;;;;;;;5036582;28;20205;-72
2021/05/03 14:58:51;;;;;;;7.93;7.20;;;;;;;;;;5051623;28;21074;-74
2021/05/03 15:01:36;;;;;;;7.63;7.00;;;;;;;;;;5051938;28;20435;-73
2021/05/03 15:04:20;;;;;;;7.53;6.83;;;;;;;;;;5051430;28;20213;-74
2021/05/03 15:07:08;;;;;;;7.73;7.00;;;;;;;;;;5052449;28;20236;-73
2021/05/03 15:09:53;;;;;;;7.63;6.90;;;;;;;;;;5052002;28;20345;-72
2021/05/03 15:12:45;;;;;;;7.28;6.68;;;;;;;;;;5051326;28;20853;-72
2021/05/03 15:15:33;;;;;;;7.53;7.00;;;;;;;;;;5052488;28;20567;-73
2021/05/03 15:24:18;;;;;;;7.47;6.77;;;;;;;;;;5049318;28;20693;-73
2021/05/03 15:27:08;;;;;;;7.60;6.90;;;;;;;;;;5048434;28;20201;-72
2021/05/03 15:30:05;;;;;;;7.90;7.20;;;;;;;;;;5048570;28;20197;-73
2021/05/03 15:35:51;;;;;;;8.17;7.30;;;;;;;;;;5048851;28;20201;-72
2021/05/03 15:38:36;;;;;;;8.27;7.60;;;;;;;;;;5050604;28;20200;-78
2021/05/03 15:41:21;;;;;;;7.53;7.00;;;;;;;;;;5038451;28;20218;-77
2021/05/03 15:44:12;;;;;;;7.67;6.87;;;;;;;;;;5049137;28;20229;-78
2021/05/03 15:46:57;;;;;;;7.40;6.75;;;;;;;;;;5050489;28;20436;-77
2021/05/03 15:49:42;;;;;;;6.77;6.20;;;;;;;;;;5050888;28;20259;-77
2021/05/03 15:52:26;;;;;;;6.97;6.37;;;;;;;;;;5051300;28;20233;-79
2021/05/03 15:55:11;;;;;;;7.03;6.43;;;;;;;;;;5034165;28;20216;-78
2021/05/03 15:57:56;;;;;;;7.07;6.47;;;;;;;;;;5034473;28;20213;-75
2021/05/03 16:00:41;;;;;;;6.77;6.17;;;;;;;;;;5031060;28;20230;-78
2021/05/03 16:03:26;;;;;;;7.28;6.57;;;;;;;;;;5036507;28;20424;-77
2021/05/03 16:06:11;;;;;;;6.30;5.90;;;;;;;;;;5051416;28;20556;-74
2021/05/03 16:08:55;;;;;;;7.90;7.20;;;;;;;;;;5050700;28;20602;-74
2021/05/03 16:11:41;;;;;;;6.90;6.13;;;;;;;;;;5050868;28;20249;-74
2021/05/03 16:14:26;;;;;;;6.70;6.20;;;;;;;;;;5051214;28;20201;-75
2021/05/03 16:17:11;;;;;;;6.23;5.80;;;;;;;;;;5050100;28;20205;-75
2021/05/03 16:19:57;;;;;;;6.83;6.20;;;;;;;;;;5030667;28;20344;-76
2021/05/03 16:22:42;;;;;;;6.27;5.67;;;;;;;;;;5033856;28;20786;-74
2021/05/03 16:25:28;;;;;;;7.17;5.90;;;;;;;;;;5030765;28;20606;-74
2021/05/03 16:28:12;;;;;;;6.33;5.73;;;;;;;;;;5047590;28;20282;-76
2021/05/03 16:30:57;;;;;;;6.00;5.60;;;;;;;;;;5049825;28;20245;-74
2021/05/03 16:33:42;;;;;;;6.40;5.90;;;;;;;;;;5050934;28;20581;-72
2021/05/03 16:36:27;;;;;;;7.10;6.40;;;;;;;;;;5051158;28;20232;-72
2021/05/03 16:39:12;;;;;;;7.30;5.90;;;;;;;;;;5050489;28;20212;-72
2021/05/03 16:41:57;;;;;;;8.37;5.60;;;;;;;;;;5050531;28;20228;-75
2021/05/03 16:44:42;;;;;;;9.87;6.33;;;;;;;;;;5050571;28;20225;-73
2021/05/03 16:47:26;;;;;;;7.37;6.67;;;;;;;;;;5050320;28;20421;-73
2021/05/03 16:50:11;;;;;;;6.95;6.25;;;;;;;;;;5049663;28;20923;-74
2021/05/03 16:52:56;;;;;;;6.67;6.07;;;;;;;;;;5050081;28;20229;-72
2021/05/03 16:55:40;;;;;;;7.07;6.53;;;;;;;;;;5050055;28;20216;-73